createdAt,value
2017-04-07T00:00:13.953Z,5.27
2017-04-07T00:01:11.964Z,9.46
2017-04-07T00:02:09.781Z,6.49
2017-04-07T00:03:07.588Z,6.01
2017-04-07T00:04:06.133Z,5.14
2017-04-07T00:05:03.947Z,6.87
2017-04-07T00:06:01.725Z,5.19
2017-04-07T00:07:00.310Z,8.16
2017-04-07T00:07:59.486Z,7.34
2017-04-07T00:08:58.033Z,5.60
2017-04-07T00:09:55.817Z,6.04
2017-04-07T00:10:54.281Z,8.27
2017-04-07T00:11:52.074Z,6.83
2017-04-07T00:12:50.613Z,9.16
2017-04-07T00:13:49.017Z,9.44
2017-04-07T00:14:47.549Z,9.71
2017-04-07T00:15:45.373Z,10.24
2017-04-07T00:16:43.158Z,8.89
2017-04-07T00:17:41.694Z,8.83
2017-04-07T00:18:39.489Z,8.37
2017-04-07T00:19:37.321Z,8.74
2017-04-07T00:20:35.116Z,9.14
2017-04-07T00:21:32.893Z,9.43
2017-04-07T00:22:31.431Z,9.24
2017-04-07T00:23:29.505Z,9.01
2017-04-07T00:24:27.984Z,9.07
2017-04-07T00:25:26.549Z,9.41
2017-04-07T00:26:24.337Z,8.66
2017-04-07T00:27:22.150Z,9.51
2017-04-07T00:28:20.612Z,8.77
2017-04-07T00:29:18.401Z,9.30
2017-04-07T00:30:16.241Z,9.34
2017-04-07T00:31:14.057Z,6.41
2017-04-07T00:32:11.898Z,8.63
2017-04-07T00:33:09.709Z,9.11
2017-04-07T00:34:07.517Z,9.89
2017-04-07T00:35:05.318Z,9.37
2017-04-07T00:36:03.146Z,7.03
2017-04-07T00:37:00.969Z,6.51
2017-04-07T00:37:58.750Z,9.91
2017-04-07T00:38:57.224Z,8.97
2017-04-07T00:39:55.025Z,4.89
2017-04-07T00:40:52.886Z,7.81
2017-04-07T00:41:51.422Z,8.56
2017-04-07T00:42:49.237Z,8.46
2017-04-07T00:43:47.017Z,7.59
2017-04-07T00:44:44.869Z,7.99
2017-04-07T00:45:42.690Z,7.64
2017-04-07T00:46:40.513Z,8.54
2017-04-07T00:47:38.341Z,7.44
2017-04-07T00:48:36.269Z,7.49
2017-04-07T00:49:34.053Z,7.10
2017-04-07T00:50:31.849Z,8.20
2017-04-07T00:51:29.657Z,9.31
2017-04-07T00:52:27.466Z,8.51
2017-04-07T00:53:25.258Z,8.77
2017-04-07T00:54:23.057Z,8.19
2017-04-07T00:55:20.875Z,7.23
2017-04-07T00:56:18.701Z,8.41
2017-04-07T00:57:16.552Z,8.60
2017-04-07T00:58:15.070Z,8.77
2017-04-07T00:59:12.881Z,6.31
2017-04-07T01:00:10.709Z,6.19
2017-04-07T01:01:09.284Z,6.93
2017-04-07T01:02:07.089Z,7.79
2017-04-07T01:03:04.939Z,8.07
2017-04-07T01:04:02.746Z,8.47
2017-04-07T01:05:00.573Z,4.57
2017-04-07T01:05:58.438Z,8.37
2017-04-07T01:06:56.633Z,8.49
2017-04-07T01:07:54.449Z,8.74
2017-04-07T01:08:52.429Z,7.04
2017-04-07T01:09:50.324Z,8.97
2017-04-07T01:10:48.138Z,4.16
2017-04-07T01:11:45.977Z,4.80
2017-04-07T01:12:44.220Z,7.43
2017-04-07T01:13:42.133Z,7.89
2017-04-07T01:14:40.344Z,8.07
2017-04-07T01:15:38.561Z,6.31
2017-04-07T01:16:36.393Z,8.36
2017-04-07T01:17:34.259Z,9.30
2017-04-07T01:18:32.133Z,7.09
2017-04-07T01:19:30.594Z,10.10
2017-04-07T01:20:29.110Z,9.27
2017-04-07T01:21:26.917Z,8.87
2017-04-07T01:22:24.717Z,9.51
2017-04-07T01:23:22.791Z,9.81
2017-04-07T01:24:20.609Z,10.06
2017-04-07T01:25:19.169Z,10.86
2017-04-07T01:26:17.018Z,9.76
2017-04-07T01:27:15.557Z,9.69
2017-04-07T01:28:13.802Z,10.29
2017-04-07T01:29:11.613Z,10.29
2017-04-07T01:30:10.083Z,9.56
2017-04-07T01:31:07.885Z,9.24
2017-04-07T01:32:05.705Z,9.66
2017-04-07T01:33:03.649Z,6.54
2017-04-07T01:34:02.117Z,5.19
2017-04-07T01:35:00.653Z,7.91
2017-04-07T01:35:58.493Z,7.66
2017-04-07T01:36:56.628Z,9.44
2017-04-07T01:37:55.174Z,9.43
2017-04-07T01:38:52.988Z,8.04
2017-04-07T01:39:55.420Z,9.40
2017-04-07T01:40:53.221Z,9.49
2017-04-07T01:41:51.040Z,8.91
2017-04-07T01:42:49.606Z,9.79
2017-04-07T01:43:48.146Z,9.17
2017-04-07T01:44:45.954Z,10.66
2017-04-07T01:45:43.777Z,8.56
2017-04-07T01:46:42.266Z,8.80
2017-04-07T01:47:40.811Z,8.87
2017-04-07T01:48:38.641Z,9.79
2017-04-07T01:49:36.445Z,10.94
2017-04-07T01:50:34.244Z,6.31
2017-04-07T01:51:32.122Z,5.16
2017-04-07T01:52:30.742Z,9.33
2017-04-07T01:53:29.294Z,9.79
2017-04-07T01:54:27.125Z,9.50
2017-04-07T01:55:24.929Z,9.56
2017-04-07T01:56:23.501Z,8.81
2017-04-07T01:57:21.330Z,9.46
2017-04-07T01:58:19.117Z,9.13
2017-04-07T01:59:16.953Z,8.86
2017-04-07T02:00:14.819Z,9.67
2017-04-07T02:01:13.544Z,9.71
2017-04-07T02:02:11.409Z,8.47
2017-04-07T02:03:10.087Z,9.71
2017-04-07T02:04:07.913Z,8.66
2017-04-07T02:05:05.765Z,8.51
2017-04-07T02:06:03.761Z,8.97
2017-04-07T02:07:02.621Z,10.19
2017-04-07T02:08:01.253Z,8.93
2017-04-07T02:08:59.058Z,9.71
2017-04-07T02:09:56.865Z,9.91
2017-04-07T02:10:54.659Z,9.73
2017-04-07T02:11:52.474Z,10.04
2017-04-07T02:12:51.057Z,9.87
2017-04-07T02:13:49.577Z,9.11
2017-04-07T02:14:47.389Z,8.49
2017-04-07T02:15:45.212Z,10.83
2017-04-07T02:16:43.038Z,8.11
2017-04-07T02:17:41.516Z,9.83
2017-04-07T02:18:39.321Z,10.59
2017-04-07T02:19:37.118Z,9.07
2017-04-07T02:20:34.958Z,9.17
2017-04-07T02:21:32.777Z,6.93
2017-04-07T02:22:31.333Z,9.03
2017-04-07T02:23:29.425Z,6.64
2017-04-07T02:24:27.250Z,9.06
2017-04-07T02:25:25.033Z,8.83
2017-04-07T02:26:22.832Z,8.94
2017-04-07T02:27:20.653Z,8.53
2017-04-07T02:28:18.445Z,8.84
2017-04-07T02:29:16.249Z,8.54
2017-04-07T02:30:14.821Z,9.96
2017-04-07T02:31:13.340Z,10.03
2017-04-07T02:32:11.175Z,8.86
2017-04-07T02:33:09.087Z,8.91
2017-04-07T02:34:08.298Z,9.94
2017-04-07T02:35:06.132Z,10.84
2017-04-07T02:36:03.978Z,8.77
2017-04-07T02:37:01.808Z,8.26
2017-04-07T02:37:59.641Z,8.86
2017-04-07T02:38:57.433Z,9.13
2017-04-07T02:39:55.225Z,10.06
2017-04-07T02:40:53.780Z,9.84
2017-04-07T02:41:52.327Z,9.41
2017-04-07T02:42:50.136Z,8.99
2017-04-07T02:43:47.935Z,9.43
2017-04-07T02:44:45.736Z,9.73
2017-04-07T02:45:43.546Z,9.60
2017-04-07T02:46:41.345Z,10.41
2017-04-07T02:47:39.897Z,9.37
2017-04-07T02:48:37.697Z,9.67
2017-04-07T02:49:35.530Z,9.00
2017-04-07T02:50:33.328Z,8.63
2017-04-07T02:51:31.213Z,9.66
2017-04-07T02:52:29.696Z,8.67
2017-04-07T02:53:28.237Z,11.10
2017-04-07T02:54:26.054Z,10.66
2017-04-07T02:55:23.861Z,11.03
2017-04-07T02:56:22.333Z,9.71
2017-04-07T02:57:20.175Z,10.59
2017-04-07T02:58:18.713Z,9.49
2017-04-07T02:59:16.535Z,9.46
2017-04-07T03:00:14.340Z,10.80
2017-04-07T03:01:12.185Z,9.59
2017-04-07T03:02:09.990Z,10.11
2017-04-07T03:03:07.895Z,11.17
2017-04-07T03:04:05.777Z,7.96
2017-04-07T03:05:03.597Z,10.00
2017-04-07T03:06:01.414Z,10.76
2017-04-07T03:06:59.880Z,10.01
2017-04-07T03:07:57.693Z,10.27
2017-04-07T03:08:55.497Z,10.19
2017-04-07T03:09:53.310Z,10.99
2017-04-07T03:10:51.129Z,11.26
2017-04-07T03:11:49.665Z,10.63
2017-04-07T03:12:47.557Z,9.94
2017-04-07T03:13:45.367Z,11.21
2017-04-07T03:14:43.169Z,11.43
2017-04-07T03:15:41.717Z,10.00
2017-04-07T03:16:39.514Z,9.37
2017-04-07T03:17:37.333Z,10.87
2017-04-07T03:18:35.129Z,11.29
2017-04-07T03:19:32.924Z,10.81
2017-04-07T03:20:30.734Z,9.87
2017-04-07T03:21:28.521Z,11.87
2017-04-07T03:22:26.338Z,9.36
2017-04-07T03:23:24.162Z,11.24
2017-04-07T03:24:21.958Z,9.57
2017-04-07T03:25:19.786Z,9.67
2017-04-07T03:26:17.598Z,10.17
2017-04-07T03:27:15.443Z,12.23
2017-04-07T03:28:13.261Z,9.49
2017-04-07T03:29:11.074Z,10.59
2017-04-07T03:30:08.890Z,10.54
2017-04-07T03:31:06.693Z,10.53
2017-04-07T03:32:05.222Z,9.99
2017-04-07T03:33:03.074Z,11.57
2017-04-07T03:34:00.877Z,10.29
2017-04-07T03:34:59.333Z,10.01
2017-04-07T03:35:57.153Z,9.99
2017-04-07T03:36:55.057Z,10.57
2017-04-07T03:37:52.850Z,9.67
2017-04-07T03:38:51.443Z,10.06
2017-04-07T03:39:49.272Z,10.51
2017-04-07T03:40:47.077Z,10.53
2017-04-07T03:41:44.891Z,10.13
2017-04-07T03:42:43.435Z,9.63
2017-04-07T03:43:41.235Z,11.11
2017-04-07T03:44:39.026Z,10.07
2017-04-07T03:45:36.825Z,10.60
2017-04-07T03:46:34.617Z,10.04
2017-04-07T03:47:32.593Z,11.04
2017-04-07T03:48:30.417Z,10.63
2017-04-07T03:49:28.221Z,10.14
2017-04-07T03:50:26.673Z,9.99
2017-04-07T03:51:24.487Z,10.63
2017-04-07T03:52:22.281Z,10.31
2017-04-07T03:53:20.089Z,10.64
2017-04-07T03:54:17.897Z,11.83
2017-04-07T03:55:15.697Z,10.61
2017-04-07T03:56:13.507Z,8.74
2017-04-07T03:57:12.047Z,11.03
2017-04-07T03:58:09.848Z,10.24
2017-04-07T03:59:08.332Z,10.34
2017-04-07T04:00:06.138Z,6.63
2017-04-07T04:01:03.929Z,8.07
2017-04-07T04:02:02.458Z,10.33
2017-04-07T04:03:00.246Z,9.97
2017-04-07T04:03:58.742Z,9.30
2017-04-07T04:04:57.285Z,11.01
2017-04-07T04:05:55.111Z,8.90
2017-04-07T04:06:52.913Z,8.90
2017-04-07T04:07:50.754Z,8.66
2017-04-07T04:08:48.574Z,9.56
2017-04-07T04:09:46.417Z,8.76
2017-04-07T04:10:44.221Z,10.19
2017-04-07T04:11:42.026Z,10.41
2017-04-07T04:12:39.830Z,10.70
2017-04-07T04:13:37.685Z,9.67
2017-04-07T04:14:36.233Z,10.66
2017-04-07T04:15:34.055Z,9.69
2017-04-07T04:16:35.149Z,10.94
2017-04-07T04:17:33.005Z,9.31
2017-04-07T04:18:30.833Z,11.09
2017-04-07T04:19:28.671Z,10.46
2017-04-07T04:20:26.524Z,8.93
2017-04-07T04:21:24.349Z,9.40
2017-04-07T04:22:22.902Z,8.90
2017-04-07T04:23:21.461Z,10.20
2017-04-07T04:24:19.293Z,9.63
2017-04-07T04:25:17.109Z,10.19
2017-04-07T04:26:15.663Z,9.67
2017-04-07T04:27:13.521Z,9.97
2017-04-07T04:28:11.333Z,9.56
2017-04-07T04:29:09.191Z,7.01
2017-04-07T04:30:07.025Z,9.63
2017-04-07T04:31:05.599Z,10.10
2017-04-07T04:32:04.173Z,9.53
2017-04-07T04:33:01.985Z,9.27
2017-04-07T04:34:00.603Z,9.36
2017-04-07T04:34:58.433Z,9.83
2017-04-07T04:35:56.258Z,10.30
2017-04-07T04:36:54.106Z,10.71
2017-04-07T04:37:51.958Z,10.59
2017-04-07T04:38:49.770Z,10.43
2017-04-07T04:39:48.313Z,10.06
2017-04-07T04:40:46.127Z,10.03
2017-04-07T04:41:43.953Z,7.09
2017-04-07T04:42:41.753Z,9.16
2017-04-07T04:43:39.557Z,9.83
2017-04-07T04:44:37.394Z,9.99
2017-04-07T04:45:35.199Z,6.64
2017-04-07T04:46:33.013Z,7.54
2017-04-07T04:47:30.818Z,7.33
2017-04-07T04:48:28.609Z,9.66
2017-04-07T04:49:26.452Z,6.03
2017-04-07T04:50:24.264Z,8.87
2017-04-07T04:51:22.060Z,9.20
2017-04-07T04:52:19.887Z,5.96
2017-04-07T04:53:17.699Z,9.26
2017-04-07T04:54:15.514Z,9.44
2017-04-07T04:55:13.356Z,8.70
2017-04-07T04:56:11.169Z,7.56
2017-04-07T04:57:08.995Z,7.21
2017-04-07T04:58:06.819Z,9.41
2017-04-07T04:59:04.649Z,9.73
2017-04-07T05:00:02.492Z,9.19
2017-04-07T05:01:00.346Z,8.89
2017-04-07T05:01:58.141Z,9.53
2017-04-07T05:02:55.953Z,9.06
2017-04-07T05:03:53.891Z,5.39
2017-04-07T05:04:51.710Z,9.80
2017-04-07T05:05:49.521Z,10.04
2017-04-07T05:06:48.050Z,10.07
2017-04-07T05:07:45.953Z,10.19
2017-04-07T05:08:44.194Z,8.67
2017-04-07T05:09:42.017Z,7.63
2017-04-07T05:10:39.829Z,8.09
2017-04-07T05:11:38.292Z,8.76
2017-04-07T05:12:36.101Z,8.34
2017-04-07T05:13:33.953Z,9.61
2017-04-07T05:14:31.790Z,9.74
2017-04-07T05:15:30.373Z,11.24
2017-04-07T05:16:28.193Z,8.87
2017-04-07T05:17:25.993Z,11.29
2017-04-07T05:18:24.484Z,11.63
2017-04-07T05:19:22.301Z,14.84
2017-04-07T05:20:20.205Z,10.91
2017-04-07T05:21:18.035Z,11.07
2017-04-07T05:22:15.892Z,13.83
2017-04-07T05:23:13.710Z,12.53
2017-04-07T05:24:11.545Z,10.53
2017-04-07T05:25:10.116Z,11.91
2017-04-07T05:26:07.968Z,11.21
2017-04-07T05:27:05.788Z,11.57
2017-04-07T05:28:03.605Z,10.93
2017-04-07T05:29:01.434Z,12.01
2017-04-07T05:29:59.253Z,10.19
2017-04-07T05:30:57.048Z,10.49
2017-04-07T05:31:55.643Z,12.13
2017-04-07T05:32:53.475Z,10.27
2017-04-07T05:33:51.265Z,11.47
2017-04-07T05:34:49.844Z,10.97
2017-04-07T05:35:48.381Z,11.47
2017-04-07T05:36:46.227Z,12.26
2017-04-07T05:37:50.569Z,12.47
2017-04-07T05:39:02.149Z,12.11
2017-04-07T05:40:07.102Z,12.19
2017-04-07T05:41:13.327Z,11.00
2017-04-07T05:42:17.320Z,11.83
2017-04-07T05:43:24.940Z,11.64
2017-04-07T05:44:22.738Z,11.99
2017-04-07T05:45:20.576Z,12.16
2017-04-07T05:46:18.553Z,10.79
2017-04-07T05:47:17.433Z,13.06
2017-04-07T05:48:15.247Z,13.39
2017-04-07T05:49:13.049Z,12.83
2017-04-07T05:50:11.528Z,13.53
2017-04-07T05:51:09.346Z,11.59
2017-04-07T05:52:07.138Z,12.74
2017-04-07T05:53:04.965Z,11.81
2017-04-07T05:54:03.575Z,12.11
2017-04-07T05:55:02.124Z,11.77
2017-04-07T05:56:00.001Z,10.73
2017-04-07T05:56:58.042Z,11.94
2017-04-07T05:57:56.588Z,13.27
2017-04-07T05:58:54.369Z,12.84
2017-04-07T05:59:52.977Z,12.49
2017-04-07T06:00:50.820Z,11.63
2017-04-07T06:01:48.599Z,13.64
2017-04-07T06:02:46.414Z,13.13
2017-04-07T06:03:44.209Z,14.37
2017-04-07T06:04:42.753Z,9.64
2017-04-07T06:05:40.623Z,9.10
2017-04-07T06:06:38.443Z,11.91
2017-04-07T06:07:36.262Z,9.91
2017-04-07T06:08:34.058Z,11.07
2017-04-07T06:09:31.864Z,13.09
2017-04-07T06:10:29.673Z,11.87
2017-04-07T06:11:28.327Z,11.54
2017-04-07T06:12:26.125Z,11.81
2017-04-07T06:13:23.954Z,7.66
2017-04-07T06:14:21.748Z,11.29
2017-04-07T06:15:20.373Z,12.66
2017-04-07T06:16:18.202Z,10.97
2017-04-07T06:17:16.185Z,9.53
2017-04-07T06:18:13.978Z,10.37
2017-04-07T06:19:11.887Z,12.56
2017-04-07T06:20:09.709Z,13.81
2017-04-07T06:21:08.266Z,10.07
2017-04-07T06:22:06.117Z,8.37
2017-04-07T06:23:03.921Z,12.11
2017-04-07T06:24:01.749Z,12.26
2017-04-07T06:25:00.445Z,11.73
2017-04-07T06:25:58.273Z,12.39
2017-04-07T06:26:56.880Z,11.97
2017-04-07T06:27:54.677Z,13.17
2017-04-07T06:28:52.621Z,12.71
2017-04-07T06:29:50.444Z,12.86
2017-04-07T06:30:48.257Z,11.56
2017-04-07T06:31:46.735Z,13.19
2017-04-07T06:32:44.576Z,13.13
2017-04-07T06:33:43.259Z,12.13
2017-04-07T06:34:41.911Z,12.19
2017-04-07T06:35:39.977Z,13.67
2017-04-07T06:36:37.957Z,12.09
2017-04-07T06:37:35.836Z,13.34
2017-04-07T06:38:33.653Z,14.01
2017-04-07T06:39:31.515Z,10.13
2017-04-07T06:40:29.329Z,12.60
2017-04-07T06:41:27.169Z,9.63
2017-04-07T06:42:26.069Z,14.46
2017-04-07T06:43:24.285Z,11.84
2017-04-07T06:44:22.081Z,12.81
2017-04-07T06:45:20.546Z,9.37
2017-04-07T06:46:18.370Z,11.51
2017-04-07T06:47:16.168Z,11.14
2017-04-07T06:48:15.101Z,11.39
2017-04-07T06:49:13.408Z,11.47
2017-04-07T06:50:11.580Z,12.27
2017-04-07T06:51:10.120Z,12.44
2017-04-07T06:52:08.896Z,12.83
2017-04-07T06:53:06.706Z,13.27
2017-04-07T06:54:04.502Z,12.60
2017-04-07T06:55:02.332Z,8.70
2017-04-07T06:56:00.212Z,8.87
2017-04-07T06:56:58.893Z,12.76
2017-04-07T06:57:57.461Z,9.81
2017-04-07T06:58:56.044Z,10.49
2017-04-07T06:59:53.917Z,11.31
2017-04-07T07:00:51.733Z,13.14
2017-04-07T07:01:50.262Z,13.21
2017-04-07T07:02:48.972Z,12.76
2017-04-07T07:03:47.045Z,8.14
2017-04-07T07:04:45.528Z,10.09
2017-04-07T07:05:44.103Z,11.83
2017-04-07T07:06:42.674Z,10.70
2017-04-07T07:07:41.265Z,11.29
2017-04-07T07:08:39.820Z,12.11
2017-04-07T07:09:38.381Z,12.43
2017-04-07T07:10:36.198Z,10.83
2017-04-07T07:11:33.982Z,13.13
2017-04-07T07:12:32.471Z,4.67
2017-04-07T07:13:31.014Z,8.96
2017-04-07T07:14:28.813Z,12.94
2017-04-07T07:15:26.727Z,14.17
2017-04-07T07:16:24.533Z,7.01
2017-04-07T07:17:22.493Z,11.91
2017-04-07T07:18:20.320Z,15.47
2017-04-07T07:19:18.322Z,12.97
2017-04-07T07:20:16.129Z,5.57
2017-04-07T07:21:13.946Z,6.21
2017-04-07T07:22:11.814Z,7.30
2017-04-07T07:23:09.665Z,14.13
2017-04-07T07:24:07.481Z,14.80
2017-04-07T07:25:05.300Z,12.61
2017-04-07T07:26:03.186Z,12.80
2017-04-07T07:27:01.014Z,9.73
2017-04-07T07:27:58.853Z,13.09
2017-04-07T07:28:56.713Z,10.33
2017-04-07T07:29:54.509Z,12.33
2017-04-07T07:30:53.064Z,9.77
2017-04-07T07:31:50.925Z,11.30
2017-04-07T07:32:48.737Z,6.96
2017-04-07T07:33:46.566Z,11.59
2017-04-07T07:34:44.357Z,13.44
2017-04-07T07:35:42.846Z,11.59
2017-04-07T07:36:41.314Z,10.91
2017-04-07T07:37:39.144Z,13.14
2017-04-07T07:38:36.945Z,13.39
2017-04-07T07:39:34.737Z,12.51
2017-04-07T07:40:32.545Z,14.34
2017-04-07T07:41:30.370Z,11.24
2017-04-07T07:42:28.182Z,15.17
2017-04-07T07:43:25.977Z,9.70
2017-04-07T07:44:23.793Z,12.11
2017-04-07T07:45:21.622Z,7.24
2017-04-07T07:46:19.481Z,11.97
2017-04-07T07:47:17.262Z,8.60
2017-04-07T07:48:15.093Z,13.29
2017-04-07T07:49:12.929Z,8.31
2017-04-07T07:50:11.490Z,17.07
2017-04-07T07:51:09.306Z,15.74
2017-04-07T07:52:07.120Z,15.31
2017-04-07T07:53:05.017Z,12.19
2017-04-07T07:54:02.817Z,6.67
2017-04-07T07:55:00.621Z,9.36
2017-04-07T07:55:58.425Z,10.00
2017-04-07T07:56:56.253Z,13.14
2017-04-07T07:57:54.065Z,10.81
2017-04-07T07:58:51.878Z,13.23
2017-04-07T07:59:49.697Z,14.79
2017-04-07T08:00:47.520Z,15.56
2017-04-07T08:01:45.374Z,8.74
2017-04-07T08:02:43.861Z,9.61
2017-04-07T08:03:41.680Z,11.23
2017-04-07T08:04:39.500Z,14.21
2017-04-07T08:05:37.301Z,13.79
2017-04-07T08:06:35.139Z,14.19
2017-04-07T08:07:32.986Z,12.54
2017-04-07T08:08:30.817Z,14.61
2017-04-07T08:09:28.654Z,12.73
2017-04-07T08:10:26.895Z,7.93
2017-04-07T08:11:25.371Z,10.10
2017-04-07T08:12:23.189Z,14.51
2017-04-07T08:13:21.024Z,14.14
2017-04-07T08:14:18.862Z,14.27
2017-04-07T08:15:17.406Z,8.77
2017-04-07T08:16:15.224Z,8.11
2017-04-07T08:17:13.041Z,11.20
2017-04-07T08:18:10.862Z,7.51
2017-04-07T08:19:08.687Z,9.61
2017-04-07T08:20:06.505Z,13.87
2017-04-07T08:21:04.327Z,9.73
2017-04-07T08:22:02.163Z,6.10
2017-04-07T08:22:59.973Z,9.70
2017-04-07T08:23:57.777Z,10.37
2017-04-07T08:24:55.673Z,13.50
2017-04-07T08:25:54.365Z,13.59
2017-04-07T08:26:52.901Z,8.01
2017-04-07T08:27:50.762Z,12.46
2017-04-07T08:28:48.568Z,8.93
2017-04-07T08:29:46.366Z,12.81
2017-04-07T08:30:44.145Z,7.29
2017-04-07T08:31:41.961Z,8.24
2017-04-07T08:32:39.769Z,11.47
2017-04-07T08:33:37.669Z,8.67
2017-04-07T08:34:35.500Z,13.07
2017-04-07T08:35:33.286Z,11.67
2017-04-07T08:36:31.089Z,8.86
2017-04-07T08:37:28.885Z,8.04
2017-04-07T08:38:26.735Z,11.79
2017-04-07T08:39:24.532Z,10.53
2017-04-07T08:40:22.513Z,11.47
2017-04-07T08:41:20.317Z,10.63
2017-04-07T08:42:18.121Z,11.99
2017-04-07T08:43:15.929Z,14.37
2017-04-07T08:44:13.730Z,9.89
2017-04-07T08:45:11.544Z,9.71
2017-04-07T08:46:09.337Z,8.17
2017-04-07T08:47:07.153Z,12.71
2017-04-07T08:48:04.958Z,16.03
2017-04-07T08:49:03.522Z,14.29
2017-04-07T08:50:01.324Z,12.11
2017-04-07T08:50:59.135Z,13.40
2017-04-07T08:51:57.089Z,15.01
2017-04-07T08:52:54.901Z,15.67
2017-04-07T08:53:52.745Z,14.64
2017-04-07T08:54:50.557Z,13.10
2017-04-07T08:55:48.363Z,14.26
2017-04-07T08:56:46.168Z,13.87
2017-04-07T08:57:44.003Z,13.97
2017-04-07T08:58:41.817Z,9.04
2017-04-07T08:59:39.618Z,12.66
2017-04-07T09:00:37.602Z,11.04
2017-04-07T09:01:36.150Z,13.60
2017-04-07T09:02:33.977Z,10.00
2017-04-07T09:03:31.789Z,11.66
2017-04-07T09:04:29.611Z,9.83
2017-04-07T09:05:27.425Z,10.31
2017-04-07T09:06:25.241Z,7.46
2017-04-07T09:07:23.084Z,10.06
2017-04-07T09:08:20.948Z,10.71
2017-04-07T09:09:18.789Z,14.39
2017-04-07T09:10:16.653Z,9.43
2017-04-07T09:11:15.226Z,10.07
2017-04-07T09:12:13.753Z,10.96
2017-04-07T09:13:11.679Z,8.03
2017-04-07T09:14:09.516Z,8.29
2017-04-07T09:15:07.996Z,8.03
2017-04-07T09:16:05.830Z,7.96
2017-04-07T09:17:03.649Z,8.60
2017-04-07T09:18:01.491Z,7.44
2017-04-07T09:19:00.038Z,9.60
2017-04-07T09:19:57.856Z,9.59
2017-04-07T09:20:55.650Z,12.67
2017-04-07T09:21:53.473Z,11.09
2017-04-07T09:22:51.298Z,11.74
2017-04-07T09:23:49.129Z,10.24
2017-04-07T09:24:46.991Z,9.81
2017-04-07T09:25:44.773Z,10.50
2017-04-07T09:26:42.581Z,9.51
2017-04-07T09:27:40.386Z,11.46
2017-04-07T09:28:38.241Z,10.20
2017-04-07T09:29:36.079Z,12.19
2017-04-07T09:30:33.876Z,11.29
2017-04-07T09:31:31.753Z,10.87
2017-04-07T09:32:30.858Z,13.91
2017-04-07T09:33:29.466Z,12.17
2017-04-07T09:34:27.285Z,12.36
2017-04-07T09:35:25.086Z,12.63
2017-04-07T09:36:22.905Z,13.71
2017-04-07T09:37:21.507Z,10.30
2017-04-07T09:38:19.433Z,8.50
2017-04-07T09:39:17.293Z,11.17
2017-04-07T09:40:16.008Z,13.76
2017-04-07T09:41:14.529Z,10.29
2017-04-07T09:42:12.374Z,7.54
2017-04-07T09:43:10.245Z,7.97
2017-04-07T09:44:08.082Z,8.14
2017-04-07T09:45:05.890Z,10.50
2017-04-07T09:46:03.697Z,9.50
2017-04-07T09:47:01.600Z,7.59
2017-04-07T09:47:59.411Z,8.83
2017-04-07T09:48:57.256Z,10.10
2017-04-07T09:49:55.082Z,6.77
2017-04-07T09:50:52.881Z,6.14
2017-04-07T09:51:50.732Z,6.50
2017-04-07T09:52:49.194Z,8.20
2017-04-07T09:53:47.753Z,8.86
2017-04-07T09:54:45.566Z,9.69
2017-04-07T09:55:43.567Z,10.76
2017-04-07T09:56:41.407Z,6.80
2017-04-07T09:57:39.208Z,7.37
2017-04-07T09:58:37.014Z,11.14
2017-04-07T09:59:34.837Z,8.57
2017-04-07T10:00:32.665Z,11.74
2017-04-07T10:01:30.501Z,12.06
2017-04-07T10:02:28.329Z,11.87
2017-04-07T10:03:26.141Z,8.54
2017-04-07T10:04:24.646Z,11.16
2017-04-07T10:05:22.462Z,8.74
2017-04-07T10:06:20.972Z,7.86
2017-04-07T10:07:18.830Z,8.81
2017-04-07T10:08:16.641Z,7.81
2017-04-07T10:09:14.516Z,6.77
2017-04-07T10:10:12.354Z,7.71
2017-04-07T10:11:10.166Z,8.19
2017-04-07T10:12:08.023Z,6.71
2017-04-07T10:13:05.850Z,9.14
2017-04-07T10:14:04.413Z,7.77
2017-04-07T10:15:02.967Z,11.51
2017-04-07T10:16:00.794Z,8.53
2017-04-07T10:16:58.681Z,10.14
2017-04-07T10:17:56.541Z,7.83
2017-04-07T10:18:55.039Z,6.61
2017-04-07T10:19:53.613Z,8.09
2017-04-07T10:20:52.160Z,6.66
2017-04-07T10:21:50.733Z,7.03
2017-04-07T10:22:48.537Z,7.89
2017-04-07T10:23:46.346Z,6.09
2017-04-07T10:24:44.233Z,5.74
2017-04-07T10:25:42.094Z,7.09
2017-04-07T10:26:39.966Z,7.06
2017-04-07T10:27:37.825Z,7.17
2017-04-07T10:28:35.912Z,7.36
2017-04-07T10:29:34.457Z,7.19
2017-04-07T10:30:32.357Z,6.29
2017-04-07T10:31:30.825Z,6.16
2017-04-07T10:32:28.770Z,6.31
2017-04-07T10:33:26.569Z,7.07
2017-04-07T10:34:25.097Z,6.07
2017-04-07T10:35:22.906Z,6.74
2017-04-07T10:36:20.726Z,5.67
2017-04-07T10:37:19.193Z,7.47
2017-04-07T10:38:16.974Z,7.27
2017-04-07T10:39:15.508Z,9.03
2017-04-07T10:40:13.378Z,5.60
2017-04-07T10:41:11.849Z,5.50
2017-04-07T10:42:09.737Z,6.50
2017-04-07T10:43:07.565Z,6.36
2017-04-07T10:44:05.373Z,6.26
2017-04-07T10:45:03.192Z,7.16
2017-04-07T10:46:00.997Z,5.83
2017-04-07T10:46:58.801Z,6.17
2017-04-07T10:47:57.360Z,7.01
2017-04-07T10:48:55.193Z,5.70
2017-04-07T10:49:53.069Z,5.51
2017-04-07T10:50:50.905Z,6.24
2017-04-07T10:51:48.681Z,7.19
2017-04-07T10:52:47.149Z,6.40
2017-04-07T10:53:44.943Z,5.54
2017-04-07T10:54:42.759Z,5.74
2017-04-07T10:55:41.237Z,5.16
2017-04-07T10:56:39.061Z,5.53
2017-04-07T10:57:36.905Z,5.49
2017-04-07T10:58:34.699Z,6.53
2017-04-07T10:59:32.509Z,7.21
2017-04-07T11:00:30.310Z,5.96
2017-04-07T11:01:28.124Z,4.50
2017-04-07T11:02:25.989Z,5.90
2017-04-07T11:03:23.818Z,6.01
2017-04-07T11:04:21.621Z,5.67
2017-04-07T11:05:19.429Z,5.96
2017-04-07T11:06:17.225Z,5.49
2017-04-07T11:07:15.017Z,6.24
2017-04-07T11:08:12.834Z,5.83
2017-04-07T11:09:11.373Z,7.09
2017-04-07T11:10:09.209Z,7.39
2017-04-07T11:11:07.043Z,6.59
2017-04-07T11:12:04.885Z,5.93
2017-04-07T11:13:02.707Z,4.91
2017-04-07T11:14:00.525Z,6.89
2017-04-07T11:14:58.396Z,6.41
2017-04-07T11:15:56.337Z,6.87
2017-04-07T11:16:54.911Z,5.11
2017-04-07T11:17:53.449Z,7.16
2017-04-07T11:18:51.245Z,5.09
2017-04-07T11:19:49.061Z,6.01
2017-04-07T11:20:47.532Z,6.53
2017-04-07T11:21:45.398Z,6.70
2017-04-07T11:22:43.230Z,6.11
2017-04-07T11:23:41.133Z,6.01
2017-04-07T11:24:38.953Z,6.76
2017-04-07T11:25:36.785Z,6.00
2017-04-07T11:26:34.597Z,5.47
2017-04-07T11:27:32.397Z,5.00
2017-04-07T11:28:30.183Z,5.80
2017-04-07T11:29:28.636Z,5.70
2017-04-07T11:30:26.453Z,5.94
2017-04-07T11:31:24.297Z,5.51
2017-04-07T11:32:22.124Z,7.57
2017-04-07T11:33:20.493Z,6.81
2017-04-07T11:34:18.449Z,7.34
2017-04-07T11:35:17.036Z,7.44
2017-04-07T11:36:15.609Z,6.77
2017-04-07T11:37:13.673Z,5.60
2017-04-07T11:38:12.708Z,6.50
2017-04-07T11:39:11.266Z,5.60
2017-04-07T11:40:09.085Z,4.77
2017-04-07T11:41:07.115Z,5.53
2017-04-07T11:42:04.928Z,6.20
2017-04-07T11:43:03.036Z,7.01
2017-04-07T11:44:01.043Z,6.10
2017-04-07T11:44:58.871Z,5.97
2017-04-07T11:45:56.694Z,6.43
2017-04-07T11:46:54.523Z,5.56
2017-04-07T11:47:52.519Z,6.19
2017-04-07T11:48:50.389Z,5.84
2017-04-07T11:49:48.865Z,6.00
2017-04-07T11:50:46.985Z,5.57
2017-04-07T11:51:44.872Z,7.21
2017-04-07T11:52:42.709Z,5.79
2017-04-07T11:53:40.558Z,5.67
2017-04-07T11:54:38.350Z,7.00
2017-04-07T11:55:36.202Z,5.64
2017-04-07T11:56:34.700Z,6.00
2017-04-07T11:57:33.254Z,5.29
2017-04-07T11:58:31.089Z,6.06
2017-04-07T11:59:29.690Z,6.47
2017-04-07T12:00:28.321Z,6.13
2017-04-07T12:01:26.269Z,5.64
2017-04-07T12:02:24.141Z,7.01
2017-04-07T12:03:22.065Z,6.46
2017-04-07T12:04:20.633Z,7.94
2017-04-07T12:05:19.253Z,8.27
2017-04-07T12:06:17.118Z,6.77
2017-04-07T12:07:14.931Z,7.36
2017-04-07T12:08:12.767Z,6.50
2017-04-07T12:09:10.630Z,8.56
2017-04-07T12:10:09.189Z,5.54
2017-04-07T12:11:07.825Z,5.56
2017-04-07T12:12:05.639Z,5.81
2017-04-07T12:13:03.508Z,6.93
2017-04-07T12:14:01.580Z,5.46
2017-04-07T12:14:59.433Z,9.07
2017-04-07T12:15:57.254Z,8.67
2017-04-07T12:16:55.114Z,5.94
2017-04-07T12:17:53.679Z,6.76
2017-04-07T12:18:52.237Z,7.57
2017-04-07T12:19:50.045Z,6.01
2017-04-07T12:20:47.891Z,9.21
2017-04-07T12:21:45.816Z,6.44
2017-04-07T12:22:43.650Z,6.73
2017-04-07T12:23:41.536Z,7.71
2017-04-07T12:24:39.346Z,6.00
2017-04-07T12:25:37.204Z,6.89
2017-04-07T12:26:35.009Z,5.60
2017-04-07T12:27:33.590Z,7.30
2017-04-07T12:28:32.143Z,4.91
2017-04-07T12:29:29.956Z,8.54
2017-04-07T12:30:27.773Z,6.94
2017-04-07T12:31:26.351Z,8.79
2017-04-07T12:32:24.174Z,4.86
2017-04-07T12:33:21.990Z,6.11
2017-04-07T12:34:19.802Z,4.94
2017-04-07T12:35:18.378Z,6.26
2017-04-07T12:36:17.001Z,5.71
2017-04-07T12:37:14.795Z,7.20
2017-04-07T12:38:12.613Z,6.06
2017-04-07T12:39:10.467Z,6.83
2017-04-07T12:40:08.281Z,7.86
2017-04-07T12:41:06.116Z,9.80
2017-04-07T12:42:04.083Z,6.44
2017-04-07T12:43:02.243Z,11.09